Time;durP1;ratioP1;P1;durP2;ratioP2;P2;SDS_P1;SDS_P2;PMS_P1;PMS_P2;Temp;Humidity;BMP_temperature;BMP_pressure;BME280_temperature;BME280_humidity;BME280_pressure;Samples;Min_cycle;Max_cycle;Signal;HPM_P1;HPM_P2
2021/12/11 00:00:46;;;;;;;2.38;2.13;;;15.60;73.50;;;;;;5015451;28;20030;-45
2021/12/11 00:03:28;;;;;;;2.70;2.28;;;15.60;67.60;;;;;;5015229;28;20094;-46
2021/12/11 00:06:18;;;;;;;5.47;2.65;;;15.60;67.80;;;;;;5014971;28;20026;-45
2021/12/11 00:08:46;;;;;;;3.85;2.78;;;15.50;73.60;;;;;;5015053;28;20073;-45
2021/12/11 00:11:20;;;;;;;3.92;2.50;;;15.50;73.40;;;;;;5014804;28;20066;-46
2021/12/11 00:13:46;;;;;;;3.67;2.50;;;;;;;;;;5014903;28;20033;-46
2021/12/11 00:16:21;;;;;;;7.57;1.92;;;15.40;67.80;;;;;;5014807;28;20029;-46
2021/12/11 00:18:55;;;;;;;3.75;2.55;;;15.50;73.70;;;;;;5015045;28;20026;-47
2021/12/11 00:21:25;;;;;;;3.58;2.20;;;15.50;73.70;;;;;;5014617;28;20065;-46
2021/12/11 00:24:05;;;;;;;2.67;2.13;;;15.40;67.80;;;;;;5014740;28;20080;-46
2021/12/11 00:26:33;;;;;;;;;;;15.50;74.10;;;;;;5014978;28;20360;-47
2021/12/11 00:29:00;;;;;;;2.63;2.10;;;15.40;73.70;;;;;;5014596;28;19944;-48
2021/12/11 00:31:31;;;;;;;3.42;2.38;;;15.40;67.90;;;;;;5014544;28;20496;-47
2021/12/11 00:33:57;;;;;;;3.08;2.55;;;;;;;;;;5013623;28;20401;-45
2021/12/11 00:36:31;;;;;;;3.40;2.22;;;15.40;73.70;;;;;;5014409;28;20030;-46
2021/12/11 00:39:08;;;;;;;3.88;2.10;;;15.40;73.80;;;;;;5014462;28;20026;-46
2021/12/11 00:41:35;;;;;;;3.88;2.40;;;15.30;70.60;;;;;;5014584;28;20030;-46
2021/12/11 00:44:01;;;;;;;3.20;2.42;;;15.40;73.80;;;;;;5014401;28;20056;-46
2021/12/11 00:46:29;;;;;;;3.72;2.13;;;15.30;73.90;;;;;;5014262;28;20053;-46
2021/12/11 00:49:17;;;;;;;3.30;2.00;;;15.30;73.70;;;;;;5014205;28;20022;-45
2021/12/11 00:51:51;;;;;;;4.68;2.50;;;15.30;73.70;;;;;;5014206;28;20038;-46
2021/12/11 00:54:17;;;;;;;3.03;2.15;;;;;;;;;;5013943;28;20048;-45
2021/12/11 00:56:45;;;;;;;3.47;2.25;;;;;;;;;;5014095;28;20029;-45
2021/12/11 00:59:16;;;;;;;2.42;2.22;;;15.30;73.80;;;;;;5014121;28;20389;-45
2021/12/11 01:01:47;;;;;;;3.10;2.25;;;13.90;67.30;;;;;;5014018;28;20053;-45
2021/12/11 01:04:17;;;;;;;2.92;2.25;;;15.30;73.90;;;;;;5014210;28;20384;-46
2021/12/11 01:06:54;;;;;;;2.40;2.08;;;15.30;73.90;;;;;;5013943;28;20110;-45
2021/12/11 01:09:25;;;;;;;3.05;2.20;;;15.30;74.10;;;;;;5013939;28;20161;-45
2021/12/11 01:11:53;;;;;;;;;;;15.30;74.70;;;;;;5014135;28;20124;-45
2021/12/11 01:14:33;;;;;;;2.75;2.15;;;15.20;74.10;;;;;;5013984;28;20291;-46
2021/12/11 01:17:06;;;;;;;2.75;1.90;;;15.30;73.90;;;;;;5014020;28;20022;-45
2021/12/11 01:19:37;;;;;;;2.30;2.08;;;15.20;72.50;;;;;;5014004;28;20057;-45
2021/12/11 01:22:11;;;;;;;2.20;1.98;;;15.20;74.10;;;;;;5013707;28;20419;-45
2021/12/11 01:24:45;;;;;;;3.20;2.15;;;;;;;;;;5013869;28;20021;-47
2021/12/11 01:27:14;;;;;;;2.05;1.80;;;15.20;74.20;;;;;;5013766;28;20033;-46
2021/12/11 01:29:42;;;;;;;2.53;1.55;;;15.10;74.00;;;;;;5013524;28;20385;-46
2021/12/11 01:32:08;;;;;;;2.15;1.95;;;;;;;;;;5013445;28;20451;-46
2021/12/11 01:34:35;;;;;;;2.17;1.98;;;15.10;71.40;;;;;;5013666;28;20380;-45
2021/12/11 01:37:02;;;;;;;3.47;1.77;;;15.20;74.20;;;;;;5013390;28;20463;-45
2021/12/11 01:39:33;;;;;;;2.38;2.17;;;15.10;74.20;;;;;;5013360;28;20026;-46
2021/12/11 01:41:59;;;;;;;3.53;2.13;;;;;;;;;;5013347;28;20058;-45
2021/12/11 01:44:30;;;;;;;2.53;2.10;;;15.10;74.20;;;;;;5013312;28;20053;-46
2021/12/11 01:47:05;;;;;;;2.20;1.77;;;15.10;68.50;;;;;;5013224;28;20025;-45
2021/12/11 01:49:32;;;;;;;2.22;1.92;;;15.10;71.20;;;;;;5013177;28;20026;-46
2021/12/11 01:52:06;;;;;;;2.20;2.00;;;15.10;74.10;;;;;;5013019;28;20405;-45
2021/12/11 01:54:39;;;;;;;2.60;2.33;;;15.10;74.10;;;;;;5012966;28;20037;-45
2021/12/11 01:57:13;;;;;;;2.53;2.00;;;15.10;74.10;;;;;;5013063;28;20029;-46
2021/12/11 01:59:43;;;;;;;2.05;1.75;;;15.10;74.30;;;;;;5013233;28;20049;-45
2021/12/11 02:02:36;;;;;;;3.03;1.80;;;15.00;68.50;;;;;;5013074;28;20056;-46
2021/12/11 02:05:05;;;;;;;3.15;1.90;;;15.00;74.20;;;;;;5013055;28;20061;-46
2021/12/11 02:07:43;;;;;;;2.65;2.00;;;15.00;74.20;;;;;;5012936;28;20026;-47
2021/12/11 02:10:21;;;;;;;3.28;2.20;;;15.10;68.50;;;;;;5012868;28;20366;-45
2021/12/11 02:12:49;;;;;;;2.03;1.67;;;15.10;73.50;;;;;;5012803;28;20092;-46
2021/12/11 02:15:27;;;;;;;2.15;1.95;;;15.00;68.60;;;;;;5012559;28;20257;-46
2021/12/11 02:18:13;;;;;;;2.38;1.70;;;15.00;68.50;;;;;;5012676;28;20080;-46
2021/12/11 02:20:52;;;;;;;3.80;2.20;;;14.90;74.30;;;;;;5012800;28;20026;-45
2021/12/11 02:23:19;;;;;;;2.35;1.98;;;15.00;74.30;;;;;;5012585;28;20113;-45
2021/12/11 02:25:49;;;;;;;2.25;1.65;;;14.90;74.40;;;;;;5012599;28;20492;-45
2021/12/11 02:28:17;;;;;;;;;;;15.10;75.20;;;;;;5013320;28;20022;-46
2021/12/11 02:31:06;;;;;;;1.80;1.70;;;14.90;68.80;;;;;;5012421;28;19920;-45
2021/12/11 02:33:43;;;;;;;2.17;1.70;;;14.90;68.80;;;;;;5011987;28;20053;-46
2021/12/11 02:36:27;;;;;;;1.92;1.75;;;14.90;68.80;;;;;;5012472;28;20028;-45
2021/12/11 02:39:20;;;;;;;2.80;1.75;;;14.90;68.80;;;;;;5012639;28;20034;-45
2021/12/11 02:42:07;;;;;;;1.70;1.60;;;14.90;68.80;;;;;;5012880;28;20392;-45
2021/12/11 02:44:43;;;;;;;2.22;1.60;;;14.90;69.00;;;;;;5012510;28;20040;-45
2021/12/11 02:47:16;;;;;;;1.77;1.67;;;14.90;74.60;;;;;;5012456;28;20018;-47
2021/12/11 02:49:51;;;;;;;1.70;1.60;;;14.90;74.80;;;;;;5012375;28;20040;-46
2021/12/11 02:52:39;;;;;;;2.33;2.08;;;14.80;68.80;;;;;;5012054;28;20635;-45
2021/12/11 02:55:23;;;;;;;1.70;1.60;;;14.80;69.10;;;;;;5012292;28;20069;-45
2021/12/11 02:57:52;;;;;;;2.33;1.88;;;14.80;74.80;;;;;;5014471;28;20048;-45
2021/12/11 03:00:29;;;;;;;4.03;1.67;;;14.80;68.90;;;;;;5016333;28;20029;-46
2021/12/11 03:03:03;;;;;;;2.08;1.75;;;14.80;74.70;;;;;;5016546;28;20076;-45
2021/12/11 03:05:49;;;;;;;3.22;1.83;;;14.80;74.70;;;;;;5016473;28;20025;-45
2021/12/11 03:08:18;;;;;;;2.58;1.75;;;14.80;74.60;;;;;;5016291;28;20030;-46
2021/12/11 03:10:49;;;;;;;2.03;1.70;;;14.80;74.80;;;;;;5015970;28;20502;-46
2021/12/11 03:13:15;;;;;;;2.25;1.80;;;;;;;;;;5016038;28;20074;-45
2021/12/11 03:15:41;;;;;;;2.03;1.38;;;;;;;;;;5016057;28;20053;-45
2021/12/11 03:18:07;;;;;;;2.28;1.58;;;;;;;;;;5016035;28;20096;-44
2021/12/11 03:20:36;;;;;;;1.52;1.42;;;14.70;74.60;;;;;;5015935;28;20061;-45
2021/12/11 03:23:02;;;;;;;2.45;1.77;;;;;;;;;;5016196;28;20026;-45
2021/12/11 03:25:29;;;;;;;1.50;1.40;;;14.80;74.70;;;;;;5015834;28;20515;-45
2021/12/11 03:27:55;;;;;;;2.03;1.42;;;;;;;;;;5015726;28;20037;-45
2021/12/11 03:30:26;;;;;;;2.10;1.90;;;14.70;74.50;;;;;;5015889;28;20507;-45
2021/12/11 03:32:53;;;;;;;;;;;15.00;75.50;;;;;;5016184;28;20069;-45
2021/12/11 03:35:19;;;;;;;2.08;1.60;;;;;;;;;;5015742;28;19905;-47
2021/12/11 03:37:45;;;;;;;2.88;1.50;;;;;;;;;;5015538;28;20060;-45
2021/12/11 03:40:12;;;;;;;1.95;1.45;;;14.70;74.80;;;;;;5015553;28;20030;-47
2021/12/11 03:42:39;;;;;;;2.40;1.58;;;14.80;74.70;;;;;;5015527;28;20026;-46
2021/12/11 03:45:11;;;;;;;1.95;1.75;;;14.60;74.60;;;;;;5014181;28;20674;-45
2021/12/11 03:47:43;;;;;;;2.13;1.80;;;14.70;74.70;;;;;;5015647;28;20052;-46
2021/12/11 03:50:12;;;;;;;2.28;1.70;;;14.70;74.80;;;;;;5015400;28;20025;-46
2021/12/11 03:52:38;;;;;;;1.73;1.60;;;;;;;;;;5014917;28;20173;-45
2021/12/11 03:55:05;;;;;;;2.40;1.63;;;;;;;;;;5015394;28;20049;-45
2021/12/11 03:57:31;;;;;;;1.55;1.45;;;;;;;;;;5015193;28;20030;-45
2021/12/11 03:59:57;;;;;;;1.92;1.65;;;;;;;;;;5015139;28;20096;-45
2021/12/11 04:02:29;;;;;;;1.65;1.52;;;14.60;74.90;;;;;;5015360;28;20385;-45
2021/12/11 04:04:59;;;;;;;2.17;1.73;;;14.70;74.90;;;;;;5015127;28;20703;-45
2021/12/11 04:07:30;;;;;;;1.95;1.45;;;14.60;74.80;;;;;;5014958;28;20037;-45
2021/12/11 04:09:56;;;;;;;1.50;1.35;;;;;;;;;;5015026;28;20021;-45
2021/12/11 04:12:24;;;;;;;1.30;1.20;;;14.60;74.80;;;;;;5015178;28;20038;-53
2021/12/11 04:14:51;;;;;;;1.50;1.40;;;14.30;74.70;;;;;;5015250;28;20440;-52
2021/12/11 04:17:21;;;;;;;1.55;1.20;;;14.60;75.10;;;;;;5014951;28;20499;-52
2021/12/11 04:19:47;;;;;;;1.65;1.35;;;;;;;;;;5015075;28;20423;-54
2021/12/11 04:22:14;;;;;;;1.58;1.40;;;;;;;;;;5014841;28;20523;-54
2021/12/11 04:24:42;;;;;;;1.60;1.50;;;14.60;75.20;;;;;;5015004;28;20113;-51
2021/12/11 04:27:10;;;;;;;2.03;1.45;;;14.60;75.00;;;;;;5014652;28;20033;-54
2021/12/11 04:29:36;;;;;;;2.05;1.40;;;14.60;72.90;;;;;;5014696;28;20026;-53
2021/12/11 04:32:03;;;;;;;1.80;1.50;;;14.30;72.80;;;;;;5014742;28;20029;-54
2021/12/11 04:34:31;;;;;;;1.70;1.38;;;14.60;75.10;;;;;;5014603;28;20028;-53
2021/12/11 04:37:11;;;;;;;1.40;1.30;;;14.70;75.10;;;;;;5014475;28;20111;-54
2021/12/11 04:39:38;;;;;;;1.70;1.37;;;14.40;72.50;;;;;;5014668;28;20029;-54
2021/12/11 04:42:19;;;;;;;1.63;1.38;;;14.60;75.20;;;;;;5014699;28;20026;-51
2021/12/11 04:44:47;;;;;;;1.63;1.02;;;;;;;;;;5014624;28;20049;-54
2021/12/11 04:47:31;;;;;;;1.92;1.70;;;14.50;75.10;;;;;;5014486;28;20025;-54
2021/12/11 04:50:02;;;;;;;1.90;1.25;;;14.50;75.20;;;;;;5014386;28;20488;-54
2021/12/11 04:52:46;;;;;;;2.58;1.50;;;;;;;;;;5014331;28;20034;-54
2021/12/11 04:58:05;;;;;;;1.38;1.25;;;;;;;;;;5014399;28;20113;-53
2021/12/11 05:00:54;;;;;;;1.80;1.40;;;14.50;75.30;;;;;;5012756;28;20030;-51
2021/12/11 05:12:26;;;;;;;1.70;1.17;;;14.40;75.20;;;;;;4972296;28;20133;-45
2021/12/11 05:14:52;;;;;;;2.38;1.10;;;;;;;;;;4972419;28;20130;-46
2021/12/11 05:17:20;;;;;;;1.50;1.27;;;14.50;75.40;;;;;;4997644;28;20117;-45
2021/12/11 05:19:47;;;;;;;1.38;1.27;;;14.50;75.40;;;;;;5013173;28;20056;-45
2021/12/11 05:22:13;;;;;;;1.38;1.02;;;;;;;;;;5013635;28;20022;-45
2021/12/11 05:24:42;;;;;;;1.77;1.40;;;14.40;75.60;;;;;;5013594;28;20503;-45
2021/12/11 05:27:08;;;;;;;1.27;1.10;;;;;;;;;;5013644;28;20037;-45
2021/12/11 05:29:34;;;;;;;1.30;1.20;;;;;;;;;;5013557;28;20496;-45
2021/12/11 05:32:04;;;;;;;1.38;0.90;;;14.40;75.70;;;;;;5013542;28;20041;-45
2021/12/11 05:34:30;;;;;;;1.17;0.95;;;;;;;;;;5013481;28;20022;-45
2021/12/11 05:36:56;;;;;;;1.60;1.05;;;;;;;;;;5013444;28;20092;-46
2021/12/11 05:39:22;;;;;;;1.25;1.15;;;;;;;;;;5013367;28;20030;-45
2021/12/11 05:41:50;;;;;;;1.60;1.13;;;14.40;75.70;;;;;;5013279;28;20033;-46
2021/12/11 05:44:17;;;;;;;1.63;1.30;;;14.30;75.20;;;;;;5013268;28;20033;-53
2021/12/11 05:46:44;;;;;;;1.83;1.20;;;;;;;;;;5013240;28;20033;-54
2021/12/11 05:49:10;;;;;;;1.67;1.20;;;;;;;;;;5013192;28;20076;-51
2021/12/11 05:51:39;;;;;;;2.28;1.20;;;14.60;75.40;;;;;;5013048;28;20103;-53
2021/12/11 05:54:07;;;;;;;1.45;1.15;;;14.40;75.60;;;;;;5012793;28;20134;-53
2021/12/11 05:56:36;;;;;;;1.60;1.15;;;;;;;;;;5013106;28;20022;-53
2021/12/11 05:59:05;;;;;;;1.13;0.85;;;14.30;75.60;;;;;;5012976;28;20109;-52
2021/12/11 06:01:43;;;;;;;1.23;1.13;;;14.30;75.80;;;;;;5013022;28;20595;-52
2021/12/11 06:04:14;;;;;;;2.08;0.82;;;14.40;76.10;;;;;;5013092;28;20030;-54
2021/12/11 06:06:40;;;;;;;1.55;1.00;;;;;;;;;;5012968;28;20025;-52
2021/12/11 06:09:14;;;;;;;1.77;1.20;;;14.70;76.10;;;;;;5012814;28;20034;-53
2021/12/11 06:11:43;;;;;;;1.13;1.00;;;14.90;75.40;;;;;;5012820;28;20044;-54
2021/12/11 06:14:09;;;;;;;1.40;0.82;;;;;;;;;;5012841;28;20126;-53
2021/12/11 06:16:35;;;;;;;1.35;0.90;;;;;;;;;;5012815;28;20053;-51
2021/12/11 06:19:04;;;;;;;1.38;1.08;;;;;;;;;;5012780;28;20030;-52
2021/12/11 06:21:32;;;;;;;1.00;0.90;;;15.30;75.40;;;;;;5012565;28;20025;-54
2021/12/11 06:23:58;;;;;;;2.25;1.00;;;;;;;;;;5012338;28;20030;-51
2021/12/11 06:26:24;;;;;;;1.20;0.80;;;;;;;;;;5012259;28;20037;-51
2021/12/11 06:28:50;;;;;;;2.13;0.77;;;;;;;;;;5012304;28;20022;-52
2021/12/11 06:31:19;;;;;;;1.90;0.60;;;;;;;;;;5011771;28;20065;-54
2021/12/11 06:33:51;;;;;;;1.38;0.85;;;15.60;69.30;;;;;;5012389;28;20507;-54
2021/12/11 06:36:19;;;;;;;1.20;0.63;;;15.80;75.10;;;;;;5012221;28;20030;-55
2021/12/11 06:38:48;;;;;;;1.17;0.82;;;15.70;74.90;;;;;;5012364;28;20060;-53
2021/12/11 06:41:17;;;;;;;1.60;0.80;;;15.90;74.60;;;;;;5012473;28;20041;-54
2021/12/11 06:43:43;;;;;;;1.00;0.70;;;;;;;;;;5012173;28;20030;-54
2021/12/11 06:46:09;;;;;;;1.20;0.60;;;;;;;;;;5012213;28;20085;-52
2021/12/11 06:48:35;;;;;;;1.70;0.93;;;;;;;;;;5012254;28;20218;-51
2021/12/11 06:51:03;;;;;;;2.05;0.95;;;16.10;73.00;;;;;;5012233;28;20041;-51
2021/12/11 06:53:37;;;;;;;2.70;0.77;;;16.10;74.70;;;;;;5012146;28;20124;-51
2021/12/11 06:56:05;;;;;;;2.72;1.10;;;16.20;74.70;;;;;;5012659;28;20076;-52
2021/12/11 06:58:31;;;;;;;2.03;0.80;;;;;;;;;;5012445;28;20022;-45
2021/12/11 07:00:59;;;;;;;1.73;0.80;;;16.20;73.00;;;;;;5012487;28;20045;-46
2021/12/11 07:03:25;;;;;;;4.60;0.57;;;;;;;;;;5012291;28;20030;-46
2021/12/11 07:05:51;;;;;;;1.08;0.50;;;;;;;;;;5012201;28;20507;-46
2021/12/11 07:08:18;;;;;;;2.95;0.70;;;;;;;;;;5012280;28;20084;-46
2021/12/11 07:10:44;;;;;;;1.35;0.43;;;16.10;71.20;;;;;;5012132;28;20029;-47
2021/12/11 07:13:11;;;;;;;1.98;1.02;;;16.10;72.20;;;;;;5012140;28;20112;-46
2021/12/11 07:15:37;;;;;;;2.03;0.60;;;;;;;;;;5012173;28;20026;-46
2021/12/11 07:18:03;;;;;;;1.48;0.70;;;16.20;72.20;;;;;;5012168;28;20057;-45
2021/12/11 07:20:29;;;;;;;0.93;0.57;;;;;;;;;;5012066;28;20472;-46
2021/12/11 07:22:55;;;;;;;0.40;0.40;;;;;;;;;;5012111;28;20040;-46
2021/12/11 07:25:21;;;;;;;1.63;0.80;;;;;;;;;;5012061;28;20026;-46
2021/12/11 07:27:49;;;;;;;1.83;0.52;;;16.20;74.30;;;;;;5012075;28;20045;-48
2021/12/11 07:30:15;;;;;;;1.35;0.80;;;;;;;;;;5012047;28;20369;-45
2021/12/11 07:32:41;;;;;;;0.63;0.40;;;;;;;;;;5011987;28;20042;-45
2021/12/11 07:35:08;;;;;;;0.70;0.50;;;16.30;74.40;;;;;;5011984;28;20113;-46
2021/12/11 07:37:34;;;;;;;0.70;0.55;;;;;;;;;;5012002;28;20026;-46
2021/12/11 07:40:00;;;;;;;0.52;0.43;;;;;;;;;;5011901;28;20037;-46
2021/12/11 07:42:26;;;;;;;4.50;0.85;;;;;;;;;;5011796;28;20033;-46
2021/12/11 07:44:52;;;;;;;0.75;0.55;;;;;;;;;;5015413;28;20033;-47
2021/12/11 07:47:18;;;;;;;1.90;0.60;;;;;;;;;;5015359;28;20056;-48
2021/12/11 07:49:44;;;;;;;1.58;0.90;;;;;;;;;;5015350;28;20034;-46
2021/12/11 07:52:10;;;;;;;0.90;0.50;;;;;;;;;;5015171;28;20042;-48
2021/12/11 07:54:36;;;;;;;3.22;0.52;;;;;;;;;;5015116;28;20134;-46
2021/12/11 07:57:02;;;;;;;1.30;0.70;;;;;;;;;;5015231;28;20459;-45
2021/12/11 07:59:28;;;;;;;5.47;0.47;;;;;;;;;;5015150;28;20104;-47
2021/12/11 08:01:54;;;;;;;0.77;0.50;;;;;;;;;;5015124;28;20030;-48
2021/12/11 08:04:21;;;;;;;2.83;0.75;;;16.20;74.40;;;;;;5015062;28;20037;-45
2021/12/11 08:06:48;;;;;;;1.92;0.38;;;;;;;;;;5015037;28;20041;-46
2021/12/11 08:09:19;;;;;;;1.27;0.50;;;16.20;74.00;;;;;;5014936;28;20034;-46
2021/12/11 08:11:45;;;;;;;1.45;0.70;;;;;;;;;;5014958;28;20034;-46
2021/12/11 08:14:11;;;;;;;1.67;0.52;;;;;;;;;;5015034;28;20033;-46
2021/12/11 08:16:46;;;;;;;1.42;0.45;;;16.20;73.80;;;;;;5014870;28;20091;-47
2021/12/11 08:19:15;;;;;;;1.33;0.50;;;16.30;73.80;;;;;;5014863;28;20076;-46
2021/12/11 08:21:41;;;;;;;2.00;0.70;;;;;;;;;;5014751;28;20545;-46
2021/12/11 08:24:07;;;;;;;1.10;0.50;;;;;;;;;;5014711;28;20061;-46
2021/12/11 08:26:36;;;;;;;1.45;0.50;;;16.20;73.80;;;;;;5014605;28;20026;-46
2021/12/11 08:29:02;;;;;;;0.57;0.40;;;;;;;;;;5014647;28;20109;-47
2021/12/11 08:31:28;;;;;;;1.05;0.65;;;;;;;;;;5014529;28;20049;-54
2021/12/11 08:33:54;;;;;;;1.80;0.65;;;;;;;;;;5014657;28;20033;-53
2021/12/11 08:36:22;;;;;;;0.85;0.50;;;16.30;74.30;;;;;;5014471;28;20404;-50
2021/12/11 08:38:48;;;;;;;1.40;0.50;;;16.20;70.80;;;;;;5014411;28;20026;-54
2021/12/11 08:41:18;;;;;;;2.22;0.47;;;16.20;74.00;;;;;;5014461;28;20037;-54
2021/12/11 08:43:52;;;;;;;2.30;0.40;;;;;;;;;;5014248;28;20030;-52
2021/12/11 08:46:27;;;;;;;1.15;0.40;;;;;;;;;;5014444;28;20037;-47
2021/12/11 08:48:54;;;;;;;5.65;0.47;;;16.30;71.40;;;;;;5014555;28;20022;-51
2021/12/11 08:51:31;;;;;;;1.67;0.50;;;16.30;68.30;;;;;;5014020;28;20034;-53
2021/12/11 08:53:57;;;;;;;6.18;0.70;;;;;;;;;;5013765;28;20061;-51
2021/12/11 08:56:24;;;;;;;3.38;1.00;;;;;;;;;;5013516;28;20040;-52
2021/12/11 08:58:50;;;;;;;2.85;0.63;;;16.20;72.70;;;;;;5013928;28;20026;-51
2021/12/11 09:01:16;;;;;;;5.13;0.47;;;;;;;;;;5013921;28;20053;-50
2021/12/11 09:03:49;;;;;;;1.77;0.40;;;16.30;74.10;;;;;;5013836;28;20496;-52
2021/12/11 09:06:37;;;;;;;1.05;0.38;;;16.40;68.20;;;;;;5014086;28;20022;-54
2021/12/11 09:09:15;;;;;;;2.63;0.50;;;16.40;74.20;;;;;;5014073;28;20026;-50
2021/12/11 09:11:51;;;;;;;1.35;0.55;;;16.40;73.90;;;;;;5013879;28;20142;-53
2021/12/11 09:14:22;;;;;;;1.00;0.50;;;16.50;73.40;;;;;;5013848;28;20022;-51
2021/12/11 09:16:57;;;;;;;1.60;0.70;;;16.60;67.60;;;;;;5013482;28;20036;-54
2021/12/11 09:19:37;;;;;;;4.32;0.70;;;16.70;67.70;;;;;;5013620;28;20026;-54
2021/12/11 09:22:15;;;;;;;0.68;0.28;;;16.70;67.40;;;;;;5013599;28;20022;-52
2021/12/11 09:24:57;;;;;;;3.95;1.00;;;16.90;67.30;;;;;;5013824;28;20366;-51
2021/12/11 09:27:31;;;;;;;2.10;0.50;;;16.90;67.20;;;;;;5013503;28;20108;-49
2021/12/11 09:30:12;;;;;;;2.95;0.63;;;16.90;67.20;;;;;;5013533;28;20037;-51
2021/12/11 09:32:51;;;;;;;1.67;0.50;;;17.00;67.20;;;;;;5013419;28;20033;-51
2021/12/11 09:35:32;;;;;;;1.33;0.50;;;17.00;72.50;;;;;;5013610;28;20029;-51
2021/12/11 09:38:06;;;;;;;2.38;0.50;;;17.00;66.90;;;;;;5013520;28;20057;-52
2021/12/11 09:40:35;;;;;;;1.48;0.40;;;17.00;67.00;;;;;;5013272;28;20140;-53
2021/12/11 09:43:04;;;;;;;0.68;0.40;;;;;;;;;;5013501;28;20436;-49
2021/12/11 09:45:41;;;;;;;2.67;0.50;;;17.10;66.90;;;;;;5013366;28;20041;-50
2021/12/11 09:48:17;;;;;;;3.63;0.70;;;17.20;72.80;;;;;;5013329;28;20037;-52
2021/12/11 09:50:56;;;;;;;2.50;0.30;;;17.20;73.10;;;;;;5013441;28;20053;-53
2021/12/11 09:53:28;;;;;;;2.97;0.55;;;17.20;73.00;;;;;;5013052;28;20045;-50
2021/12/11 09:55:55;;;;;;;5.40;0.50;;;;;;;;;;5013322;28;20428;-52
2021/12/11 09:58:24;;;;;;;9.73;1.58;;;17.20;73.50;;;;;;5013000;28;20026;-52
2021/12/11 10:00:50;;;;;;;6.85;0.98;;;;;;;;;;5013022;28;20013;-51
2021/12/11 10:03:20;;;;;;;3.38;0.82;;;17.20;73.40;;;;;;5013101;28;20068;-51
2021/12/11 10:06:07;;;;;;;5.35;1.20;;;17.30;73.50;;;;;;5012873;28;20053;-53
2021/12/11 10:08:41;;;;;;;4.18;0.63;;;17.40;73.70;;;;;;5013247;28;20475;-52
2021/12/11 10:11:17;;;;;;;5.65;0.90;;;17.20;67.80;;;;;;5011710;28;20453;-53
2021/12/11 10:13:52;;;;;;;2.45;0.80;;;17.20;67.80;;;;;;5012946;28;20432;-52
2021/12/11 10:16:21;;;;;;;2.47;0.70;;;17.20;73.50;;;;;;5012787;28;20040;-52
2021/12/11 10:18:47;;;;;;;6.38;1.02;;;17.30;71.30;;;;;;5012597;28;20026;-54
2021/12/11 10:21:34;;;;;;;5.80;0.82;;;17.10;67.90;;;;;;5012992;28;20117;-52
2021/12/11 10:24:05;;;;;;;3.63;1.13;;;17.20;73.70;;;;;;5012755;28;20592;-52
2021/12/11 10:26:32;;;;;;;1.48;0.57;;;;;;;;;;5012735;28;20095;-52
2021/12/11 10:29:00;;;;;;;6.63;1.00;;;17.20;74.20;;;;;;5012902;28;20386;-51
2021/12/11 10:31:29;;;;;;;2.97;0.50;;;17.30;74.40;;;;;;5012493;28;20099;-54
2021/12/11 10:33:57;;;;;;;2.28;0.63;;;17.20;75.00;;;;;;5012483;28;20033;-53
2021/12/11 10:36:26;;;;;;;8.20;1.08;;;17.20;75.00;;;;;;5012483;28;20034;-55
2021/12/11 10:38:54;;;;;;;1.42;0.60;;;17.30;73.50;;;;;;5012807;28;20124;-46
2021/12/11 10:41:20;;;;;;;2.25;0.70;;;;;;;;;;5012522;28;20030;-46
2021/12/11 10:43:56;;;;;;;7.95;1.13;;;17.30;70.30;;;;;;5012534;28;20030;-47
2021/12/11 10:46:28;;;;;;;3.15;1.65;;;17.40;76.50;;;;;;5012564;28;20034;-48
2021/12/11 10:48:54;;;;;;;3.15;0.75;;;17.40;74.50;;;;;;5012437;28;20104;-47
2021/12/11 10:51:31;;;;;;;5.68;1.00;;;17.40;75.60;;;;;;5012412;28;20046;-48
2021/12/11 10:53:57;;;;;;;9.13;0.82;;;;;;;;;;5012257;28;20043;-49
2021/12/11 10:56:25;;;;;;;5.25;0.70;;;17.40;75.10;;;;;;5012854;28;20060;-51
2021/12/11 10:59:00;;;;;;;2.67;0.90;;;17.30;74.40;;;;;;5012479;28;20105;-49
2021/12/11 11:01:40;;;;;;;3.58;0.77;;;17.30;75.20;;;;;;5012741;28;20114;-49
2021/12/11 11:04:17;;;;;;;4.10;0.93;;;17.30;75.90;;;;;;5012386;28;20499;-49
2021/12/11 11:06:45;;;;;;;2.50;1.30;;;;;;;;;;5012412;28;20029;-48
2021/12/11 11:09:12;;;;;;;1.65;0.70;;;17.20;76.20;;;;;;5012319;28;20040;-49
2021/12/11 11:11:38;;;;;;;1.85;0.80;;;;;;;;;;5012543;28;20400;-49
2021/12/11 11:14:06;;;;;;;18.35;1.55;;;17.10;78.00;;;;;;5012272;28;20057;-48
2021/12/11 11:16:34;;;;;;;2.33;1.13;;;17.10;78.30;;;;;;5012290;28;20030;-49
2021/12/11 11:19:01;;;;;;;2.33;0.73;;;;;;;;;;5014580;28;20033;-49
2021/12/11 11:21:33;;;;;;;9.02;1.33;;;16.90;78.60;;;;;;5016029;28;20041;-48
2021/12/11 11:24:00;;;;;;;7.22;1.30;;;;;;;;;;5015951;28;20117;-46
2021/12/11 11:26:30;;;;;;;3.20;0.82;;;16.80;78.70;;;;;;5015905;28;20041;-47
2021/12/11 11:28:58;;;;;;;2.65;0.70;;;16.80;81.30;;;;;;5015927;28;20026;-46
2021/12/11 11:31:28;;;;;;;4.60;1.40;;;16.80;82.40;;;;;;5015779;28;20037;-46
2021/12/11 11:33:54;;;;;;;4.35;1.20;;;;;;;;;;5015961;28;20022;-48
2021/12/11 11:36:23;;;;;;;5.55;1.23;;;16.90;84.50;;;;;;5015799;28;20038;-48
2021/12/11 11:38:55;;;;;;;2.03;1.07;;;16.90;84.60;;;;;;5015928;28;20025;-48
2021/12/11 11:41:27;;;;;;;4.15;1.55;;;16.90;85.50;;;;;;5015565;28;20469;-47
2021/12/11 11:43:53;;;;;;;2.85;1.15;;;;;;;;;;5015664;28;20491;-47
2021/12/11 11:46:19;;;;;;;8.27;1.52;;;;;;;;;;5015565;28;20026;-47
2021/12/11 11:48:50;;;;;;;2.60;0.77;;;17.00;86.60;;;;;;5015534;28;20030;-48
2021/12/11 11:51:21;;;;;;;2.97;0.82;;;17.00;87.10;;;;;;5015448;28;20045;-47
2021/12/11 11:53:47;;;;;;;4.28;1.27;;;;;;;;;;5015127;28;20050;-47
2021/12/11 11:56:17;;;;;;;4.68;0.85;;;17.00;87.70;;;;;;5015241;28;20026;-48
2021/12/11 11:58:43;;;;;;;3.33;1.10;;;;;;;;;;5015211;28;20396;-46
2021/12/11 12:01:32;;;;;;;4.03;0.80;;;17.10;88.20;;;;;;5015305;28;20062;-48
2021/12/11 12:03:58;;;;;;;3.42;1.00;;;;;;;;;;5014617;28;20030;-48
2021/12/11 12:06:32;;;;;;;3.05;0.98;;;17.10;88.30;;;;;;5015230;28;20034;-48
2021/12/11 12:08:59;;;;;;;5.72;1.10;;;17.10;88.40;;;;;;5015206;28;20022;-48
2021/12/11 12:11:27;;;;;;;6.05;1.10;;;17.10;88.80;;;;;;5015320;28;20044;-50
2021/12/11 12:13:53;;;;;;;5.13;1.02;;;;;;;;;;5015083;28;20026;-53
2021/12/11 12:16:19;;;;;;;4.00;0.90;;;;;;;;;;5015048;28;20065;-50
2021/12/11 12:18:45;;;;;;;5.40;0.95;;;17.10;86.20;;;;;;5015276;28;20077;-52
2021/12/11 12:21:15;;;;;;;6.18;1.35;;;17.10;89.10;;;;;;5014880;28;20105;-51
2021/12/11 12:23:41;;;;;;;4.63;1.27;;;;;;;;;;5014906;28;20480;-51
2021/12/11 12:26:11;;;;;;;3.67;1.17;;;17.10;89.10;;;;;;5014728;28;20468;-50
2021/12/11 12:28:37;;;;;;;4.65;1.17;;;;;;;;;;5014848;28;20022;-54
2021/12/11 12:31:08;;;;;;;6.35;1.20;;;17.10;89.20;;;;;;5013594;28;20040;-53
2021/12/11 12:33:34;;;;;;;4.93;1.52;;;17.10;88.70;;;;;;5014955;28;20101;-51
2021/12/11 12:36:01;;;;;;;6.07;1.30;;;17.10;89.00;;;;;;5014630;28;20025;-50
2021/12/11 12:38:31;;;;;;;3.47;0.88;;;17.10;88.80;;;;;;5014638;28;20033;-50
2021/12/11 12:41:24;;;;;;;4.10;1.38;;;17.20;83.30;;;;;;5014685;28;20030;-49
2021/12/11 12:44:16;;;;;;;2.97;1.20;;;16.90;88.50;;;;;;5014799;28;20019;-52
2021/12/11 12:46:56;;;;;;;5.53;1.20;;;17.10;88.60;;;;;;5014338;28;20041;-53
2021/12/11 12:49:28;;;;;;;4.32;1.05;;;17.10;89.20;;;;;;5021011;28;20032;-55
2021/12/11 12:51:54;;;;;;;3.35;1.10;;;;;;;;;;5014173;28;20037;-54
2021/12/11 12:54:22;;;;;;;5.93;1.38;;;17.10;90.40;;;;;;5014148;28;20046;-55
2021/12/11 12:56:48;;;;;;;3.08;1.20;;;;;;;;;;5014206;28;20092;-54
2021/12/11 12:59:35;;;;;;;3.35;1.25;;;17.00;90.50;;;;;;5014298;28;20038;-51
2021/12/11 13:02:08;;;;;;;3.80;0.80;;;17.10;85.90;;;;;;5014085;28;20109;-54
2021/12/11 13:04:41;;;;;;;4.72;1.27;;;17.10;90.80;;;;;;5014133;28;20053;-54
2021/12/11 13:07:12;;;;;;;5.35;1.20;;;17.20;90.60;;;;;;5014299;28;20029;-53
2021/12/11 13:10:13;;;;;;;2.00;0.82;;;17.00;86.30;;;;;;5014146;28;20022;-54
2021/12/11 13:12:43;;;;;;;2.35;1.05;;;17.00;90.90;;;;;;4982007;28;20050;-50
2021/12/11 13:15:19;;;;;;;2.47;1.15;;;17.00;90.90;;;;;;5013832;28;20026;-53
2021/12/11 13:17:48;;;;;;;2.25;1.00;;;17.00;90.80;;;;;;5013937;28;20026;-52
2021/12/11 13:20:20;;;;;;;4.20;1.17;;;17.10;90.80;;;;;;5014191;28;20029;-50
2021/12/11 13:22:48;;;;;;;1.98;0.77;;;17.10;91.00;;;;;;5013837;28;20480;-52
2021/12/11 13:25:20;;;;;;;1.45;0.73;;;17.20;90.90;;;;;;5013860;28;20034;-51
2021/12/11 13:27:53;;;;;;;2.28;0.65;;;17.10;86.30;;;;;;5013961;28;20022;-50
2021/12/11 13:30:35;;;;;;;3.40;0.73;;;17.10;90.90;;;;;;5013558;28;20029;-51
2021/12/11 13:33:05;;;;;;;1.80;0.70;;;;;;;;;;5013412;28;20138;-51
2021/12/11 13:35:33;;;;;;;3.00;0.90;;;17.10;90.90;;;;;;5013617;28;20017;-53
2021/12/11 13:37:59;;;;;;;2.15;1.00;;;;;;;;;;5013394;28;20116;-53
2021/12/11 13:40:25;;;;;;;3.90;1.40;;;17.10;89.50;;;;;;5013231;28;20072;-53
2021/12/11 13:42:51;;;;;;;2.75;0.80;;;;;;;;;;5013481;28;20022;-51
2021/12/11 13:45:25;;;;;;;2.25;0.70;;;17.20;91.10;;;;;;5013194;28;20044;-53
2021/12/11 13:47:52;;;;;;;2.60;1.00;;;17.20;90.80;;;;;;5013336;28;20376;-53
2021/12/11 13:50:36;;;;;;;1.65;0.77;;;17.10;86.40;;;;;;5012994;28;20080;-52
2021/12/11 13:53:03;;;;;;;1.60;0.70;;;17.10;90.90;;;;;;5012721;28;20061;-51